x

Cape Suckling - 35 Nm Se Of Kayak Is, Ak (46082) Wave Buoy

3:50pm - Fri 1st Aug 2014 All times are AKDT. -8 hours from GMT.

  • Sig Wave height 2.3ft
  • Peak Period 7s
  • Average Period 4s
  • Wind
    16mph
  • Sea Temp 59°f
  • Air Temp 55°f
  • Sea Pressure 1024.7mb
  • Cape Suckling - 35 Nm Se Of Kayak Is, Ak
  • Cape Suckling - 35 Nm Se Of Kayak Is, Ak

More Historic Weather Station data

Upgrade to MSW Pro to gain access to the past 30 days of data for over 8000 Wavebouys and Weather Stations around the globe.

Join Pro

Comparision Forecast

View Surf forecast
   
Fri 08/01 3:50pm 2.5ft 7s 4s 16
mph
1024.7mb 59f 55f
2:50pm 2.5ft 14s 5s 13 16 mph 1025.1mb 59f 55f
1:50pm 2.5ft 7s 5s 11 13 mph 1025.5mb 59f 56f
12:50pm 2ft 7s 5s 11 13 mph 1025.5mb 59f 55f
11:50am 2.5ft 6s 5s 11 13 mph 1025.6mb 59f 54f
10:50am 2.5ft 7s 5s 11 16 mph 1025.6mb 59f 54f
9:50am 2.5ft 6s 5s 11 13 mph 1025.7mb 59f 54f
8:50am 2.5ft 7s 5s 11 13 mph 1025.6mb 59f 54f
7:50am 2.5ft 6s 5s 9 11 mph 1025.7mb 59f 54f
6:50am 2.5ft 6s 5s 9 11 mph 1025.6mb 59f 55f
5:50am 2.5ft 7s 5s 9 11 mph 1025.7mb 59f 54f
4:50am 2.5ft 7s 5s 9 13 mph 1025.9mb 59f 53f
3:50am 2.5ft 6s 5s 11 13 mph 1026.2mb 59f 53f
2:50am 2.5ft 7s 5s 11 13 mph 1026.5mb 59f 53f
1:50am 2.5ft 7s 4s 11 13 mph 1026.7mb 59f 53f
12:50am 2.5ft 7s 4s 11 13 mph 1026.9mb 59f 54f
Thu 07/31 11:50pm 2.5ft 7s 5s 11 13 mph 1026.9mb 59f 55f
10:50pm 2.5ft 7s 4s 13
mph
1026.9mb 59f 55f
9:50pm 2.5ft 7s 5s 11 13 mph 1026.9mb 59f 58f
8:50pm 2.5ft 7s 5s 11 13 mph 1026.8mb 59f 58f
7:50pm 3.5ft 6s 5s 11 13 mph 1026.9mb 60f 58f
6:50pm 3.5ft 7s 5s 11 13 mph 1027mb 60f 58f
5:50pm 3.5ft 7s 6s 9 11 mph 1027.2mb 61f 59f
4:50pm 3.5ft 7s 6s 9
mph
1027.5mb 61f 59f
3:50pm 3ft 7s 6s 7 9 mph 1027.9mb 60f 59f
2:50pm 3ft 7s 6s 4 7 mph 1028.3mb 60f 58f
1:50pm 2.5ft 7s 6s 2 4 mph 1028.6mb 60f 58f
12:50pm 2.5ft 7s 5s 2
mph
1028.8mb 59f 58f
11:50am 2.5ft 7s 5s 2
mph
1028.7mb 59f 58f
10:50am 2.5ft 14s 5s 2 4 mph 1028.6mb 59f 57f
9:50am 2.5ft 14s 5s 7
mph
1028.4mb 59f 56f
8:50am 2.5ft 7s 5s 7 9 mph 1028.2mb 58f 56f
7:50am 2.5ft 7s 5s 4
mph
1028mb 58f 57f
6:50am 3ft 6s 4s 2 4 mph 1027.9mb 58f 58f
5:50am 3ft 6s 4s 2 4 mph 1027.9mb 58f 58f
4:50am 3ft 6s 5s 4 7 mph 1027.8mb 59f 57f
3:50am 3ft 6s 4s 4 7 mph 1027.9mb 59f 58f
2:50am 3ft 5s 5s 7
mph
1028mb 59f 58f
1:50am 2.5ft 5s 4s 7 9 mph 1028.1mb 59f 58f
12:50am 2.5ft 5s 4s 7 9 mph 1028mb 59f 58f
Wed 07/30 11:50pm 2.5ft 6s 4s 9
mph
1027.7mb 59f 58f
10:50pm 2.5ft 6s 4s 9
mph
1027.4mb 59f 58f
9:50pm 2.5ft 14s 4s 9 11 mph 1027mb 59f 58f
8:50pm 2.5ft 5s 4s 9 11 mph 1026.7mb 59f 58f
7:50pm 2.5ft 6s 4s 11 13 mph 1026.3mb 59f 58f
6:50pm 3ft 5s 4s 9 11 mph 1026mb 59f 58f
5:50pm 3.5ft 6s 4s 11 13 mph 1025.6mb 59f 58f
4:50pm 4.5ft 6s 4s 13 16 mph 1025mb 58f 58f
3:50pm 4ft 5s 4s 13 16 mph 1024.6mb 58f 58f
2:50pm 4.5ft 6s 4s 16 18 mph 1024.2mb 58f 58f
1:50pm 4.5ft 6s 4s 18 20 mph 1023.8mb 58f 58f
12:50pm 5ft 6s 4s 18 22 mph 1023.4mb 58f 58f
11:50am 6ft 6s 5s 22 27 mph 1022.5mb 58f 57f
10:50am 6ft 5s 5s 22 27 mph 1021.8mb 58f 57f
9:50am 5ft 6s 4s 20 25 mph 1021.3mb 58f 57f
8:50am 5ft 6s 4s 22 25 mph 1020.4mb 58f 57f
7:50am 5ft 5s 4s 20 25 mph 1019.7mb 58f 57f
6:50am 5ft 6s 4s 22 25 mph 1019.2mb 58f 57f
5:50am 5ft 6s 4s 18 25 mph 1018.8mb 58f 57f
4:50am 5.5ft 6s 5s 20 25 mph 1018.1mb 58f 58f
3:50am 6ft 6s 4s 22 27 mph 1017.4mb 58f 57f
2:50am 5.5ft 6s 4s 22 27 mph 1017.2mb 58f 57f
1:50am 6ft 5s 5s 25 27 mph 1017.1mb 58f 57f
12:50am 5.5ft 6s 4s 22 27 mph 1017mb 58f 57f
Tue 07/29 11:50pm 5ft 6s 4s 20 27 mph 1016.5mb 58f 57f
10:50pm 4.5ft 6s 4s 20 25 mph 1016.2mb 58f 58f
9:50pm 4ft 5s 4s 18 22 mph 1016mb 58f 58f
8:50pm 3.5ft 6s 4s 16 20 mph 1015.8mb 58f 58f
7:50pm 3.5ft 6s 4s 11 13 mph 1015.7mb 58f 58f
6:50pm 3.5ft 5s 4s 11 13 mph 1015.5mb 58f 58f
5:50pm 3.5ft 5s 4s 13 16 mph 1015.2mb 58f 57f
4:50pm 3.5ft 5s 4s 13 16 mph 1014.8mb 58f 57f
3:50pm 3.5ft 5s 4s 13 16 mph 1014.8mb 58f 57f
2:50pm 3.5ft 4s 4s 16 18 mph 1014.6mb 58f 57f
1:50pm 3.5ft 4s 4s 13 16 mph 1014.5mb 58f 57f
12:50pm 3ft 4s 4s 13 18 mph 1014.4mb 58f 56f
11:50am 2.5ft 3s 4s 16 18 mph 1014.5mb 58f 56f
10:50am 2ft 6s 4s 16 18 mph 1014.4mb 58f 57f
9:50am 2ft 6s 4s 13 16 mph 1014.4mb 58f 57f
8:50am 2ft 16s 6s 13 16 mph 1014.1mb 58f 58f
7:50am 2ft 16s 6s 7 9 mph 1013.9mb 58f 58f
6:50am 2ft 16s 6s 7
mph
1013.7mb 58f 57f
5:50am 1.6ft 16s 5s 2 4 mph 1013.4mb 58f 57f
4:50am 1.6ft 15s 6s 2
mph
1013.4mb 58f 57f
3:50am 1.6ft 16s 5s  -  2 mph 1013.1mb 58f 57f
2:50am 2ft 16s 6s  -  2 mph 1013.1mb 58f 57f
1:50am 1.6ft 6s 5s 4
mph
1013.3mb 58f 57f
12:50am 1.6ft 16s 5s 4
mph
1013.7mb 59f 57f